Last 24 Hours

Aguanga Barbara Trail

10 Minute Data | America/Los_Angeles
as of 5/20/22 7:58 AM PDT
Date & Time Temp (°F) Dew Pt (°F) RH (%) Wind Spd (mph) Wind Dir (°) Wind Gust (mph) Wind Gst Dir (°) Daily Max Temp (°F) Daily Min Temp (°F)
5/20/22 - 0750 48.0 48.0 100 6.2 W | 275 9.2 W | 272 50.3 47.5
5/20/22 - 0740 47.8 47.7 100 5.2 W | 264 7.5 W | 279 50.3 47.5
5/20/22 - 0730 47.7 47.7 100 7.1 W | 268 9.8 W | 273 50.3 47.5
5/20/22 - 0720 47.9 47.9 100 6.0 WNW | 283 9.1 W | 262 50.3 47.6
5/20/22 - 0710 47.7 47.7 100 5.6 W | 264 8.8 WSW | 253 50.3 47.6
5/20/22 - 0700 47.9 47.9 100 4.4 W | 262 7.4 WSW | 255 50.3 47.6
5/20/22 - 0650 47.9 47.8 100 5.1 W | 276 8.9 WNW | 282 50.3 47.6
5/20/22 - 0640 48.0 48.0 100 5.2 W | 272 8.6 WNW | 298 50.3 47.7
5/20/22 - 0630 47.9 47.9 100 4.8 WSW | 252 7.6 W | 271 50.3 47.7
5/20/22 - 0620 48.2 48.2 100 6.2 W | 260 8.3 WSW | 256 50.3 47.7
5/20/22 - 0610 47.9 47.9 100 6.4 WSW | 258 11.7 W | 270 50.3 47.7
5/20/22 - 0600 48.3 48.3 100 5.8 W | 259 9.4 WSW | 254 50.3 48.0
5/20/22 - 0550 48.2 48.2 100 5.2 W | 272 9.3 W | 281 50.3 48.0
5/20/22 - 0540 48.4 48.3 100 2.9 WNW | 282 4.5 WSW | 256 50.3 48.0
5/20/22 - 0530 48.2 48.2 100 4.7 W | 259 6.9 WSW | 255 50.3 48.0
5/20/22 - 0520 48.1 48.1 100 4.5 W | 265 7.8 WSW | 253 50.3 48.0
5/20/22 - 0510 48.1 48.1 100 3.7 W | 279 7.1 W | 271 50.3 48.0
5/20/22 - 0500 48.2 48.1 100 4.0 W | 263 6.2 W | 270 50.3 48.0
5/20/22 - 0450 48.2 48.1 100 6.8 W | 274 9.8 W | 275 50.3 48.0
5/20/22 - 0440 48.4 48.4 100 5.4 W | 271 7.5 WNW | 284 50.3 48.2
5/20/22 - 0430 48.3 48.3 100 5.3 W | 263 7.8 W | 270 50.3 48.2
5/20/22 - 0420 48.5 48.5 100 5.9 W | 272 7.7 W | 266 50.3 48.3
5/20/22 - 0410 48.6 48.6 100 5.5 W | 268 8.1 W | 264 50.3 48.4
5/20/22 - 0400 48.6 48.5 100 4.4 WNW | 289 6.1 WNW | 286 50.3 48.4
5/20/22 - 0350 48.6 48.5 100 4.6 WNW | 290 6.6 W | 281 50.3 48.4
5/20/22 - 0340 48.6 48.6 100 5.7 W | 276 7.7 W | 277 50.3 48.4
5/20/22 - 0330 48.9 48.9 100 5.4 W | 271 7.7 W | 278 50.3 48.8
5/20/22 - 0320 49.0 49.0 100 5.9 W | 281 8.6 W | 279 50.3 48.9
5/20/22 - 0310 49.2 49.2 100 5.3 W | 272 8.0 W | 274 50.3 49.0
5/20/22 - 0300 49.4 49.4 100 4.4 W | 262 7.7 WSW | 253 50.3 49.3
5/20/22 - 0250 49.4 49.4 100 4.4 W | 278 7.3 W | 266 50.3 49.3
5/20/22 - 0240 49.6 49.6 100 4.3 W | 279 6.9 W | 272 50.3 49.4
5/20/22 - 0230 49.8 49.8 100 3.6 W | 264 5.0 W | 266 50.3 49.7
5/20/22 - 0220 49.9 49.9 100 3.4 WSW | 250 5.1 WSW | 240 50.3 49.7
5/20/22 - 0210 50.2 50.1 100 1.5 WNW | 285 3.4 W | 266 50.3 49.8
5/20/22 - 0200 50.1 50.1 100 1.1 NW | 312 3.7 NW | 316 50.3 49.8
5/20/22 - 0150 50.2 50.2 100 2.2 WNW | 288 3.4 NW | 312 50.3 49.8
5/20/22 - 0140 50.2 50.1 100 2.6 SW | 226 4.5 SSW | 202 50.3 49.8
5/20/22 - 0130 50.0 50.0 100 1.9 SSW | 207 3.0 SW | 221 50.3 49.8
5/20/22 - 0120 50.1 50.1 100 2.9 S | 180 4.5 SSW | 209 50.3 49.8
5/20/22 - 0110 50.1 50.1 100 2.4 S | 189 5.0 SW | 228 50.2 50.0
5/20/22 - 0100 50.3 50.2 100 2.7 W | 262 4.9 W | 272 74.8 50.1
5/20/22 - 0050 50.2 50.2 100 2.2 W | 265 4.5 W | 260 74.8 50.2
5/20/22 - 0040 50.4 50.4 100 3.7 W | 278 6.8 W | 276 74.8 50.2
5/20/22 - 0030 50.4 50.4 100 2.2 W | 262 3.9 W | 268 74.8 50.3
5/20/22 - 0020 50.5 50.5 100 3.2 WSW | 250 5.0 WSW | 244 74.8 50.4
5/20/22 - 0010 50.6 50.6 100 2.3 WSW | 248 5.4 WSW | 255 74.8 50.4
5/20/22 - 0000 50.8 50.8 100 2.7 WSW | 245 4.2 SSW | 204 74.8 50.4
5/19/22 - 2350 50.8 50.8 100 1.2 W | 264 4.2 W | 261 74.8 50.4
5/19/22 - 2340 50.9 50.9 100 1.3 S | 177 2.8 S | 187 74.8 50.4
5/19/22 - 2330 50.7 50.6 100 2.1 S | 180 3.8 SSW | 200 74.8 50.4
5/19/22 - 2320 50.7 50.6 100 2.6 SSE | 166 4.5 SSW | 194 74.8 50.4
5/19/22 - 2310 51.0 50.9 100 2.2 S | 185 4.5 SSW | 198 74.8 50.6
5/19/22 - 2300 50.7 50.5 99 2.4 SSW | 211 4.6 S | 188 74.8 50.6
5/19/22 - 2250 51.0 50.7 99 2.1 SSW | 193 4.3 S | 190 74.8 50.6
5/19/22 - 2240 50.9 50.5 99 2.1 SW | 215 3.6 SW | 227 74.8 50.6
5/19/22 - 2230 50.8 50.3 98 3.2 SSW | 207 4.4 SSW | 193 74.8 50.6
5/19/22 - 2220 50.7 50.2 98 2.5 SSW | 207 4.0 SSW | 206 74.8 50.6
5/19/22 - 2210 51.0 50.3 98 2.6 WSW | 240 4.7 SW | 224 74.8 50.6
5/19/22 - 2200 51.0 50.1 97 3.0 WSW | 237 4.7 WSW | 245 74.8 50.6
5/19/22 - 2150 50.7 49.4 95 2.2 WSW | 248 3.6 WSW | 254 74.8 50.6
5/19/22 - 2140 51.6 49.5 92 2.4 SW | 232 3.2 SSW | 209 74.8 50.8
5/19/22 - 2130 52.6 50.3 92 2.2 S | 182 3.1 SSE | 158 74.8 52.1
5/19/22 - 2120 52.5 50.4 93 1.4 SSE | 156 2.6 SSE | 160 74.8 52.1
5/19/22 - 2110 52.5 50.3 92 1.3 WSW | 258 2.3 E | 97 74.8 52.1
5/19/22 - 2100 54.0 50.3 87 3.7 WSW | 256 5.6 W | 269 74.8 52.8
5/19/22 - 2050 55.8 50.4 82 1.8 WSW | 240 3.9 WSW | 253 74.8 55.5
5/19/22 - 2040 56.2 50.6 81 2.8 SE | 140 4.2 SE | 144 74.8 56.1
5/19/22 - 2030 58.0 50.7 77 3.2 WSW | 244 5.2 W | 262 74.8 56.3
5/19/22 - 2020 60.5 50.8 70 1.2 ENE | 67 3.9 W | 274 74.8 56.3
5/19/22 - 2010 59.9 51.3 73 2.3 ESE | 106 3.7 SE | 125 74.8 56.3
5/19/22 - 2000 58.2 51.7 79 2.5 E | 84 4.2 E | 84 74.8 56.3
5/19/22 - 1950 58.2 51.7 79 2.1 WNW | 295 5.0 WNW | 282 74.8 56.3
5/19/22 - 1940 60.6 51.8 73 4.5 W | 266 5.4 WSW | 257 74.8 56.3
5/19/22 - 1930 62.7 52.0 68 1.2 WNW | 282 4.5 W | 268 74.8 56.3
5/19/22 - 1920 62.4 52.1 69 2.6 W | 261 5.5 W | 265 74.8 56.3
5/19/22 - 1910 64.8 51.5 62 6.6 W | 276 8.5 W | 270 74.8 56.3
5/19/22 - 1900 66.6 49.7 55 2.6 NW | 308 6.4 NW | 306 74.8 56.3
5/19/22 - 1850 66.1 50.8 58 1.5 NNW | 336 3.4 WNW | 302 74.8 56.3
5/19/22 - 1840 65.8 51.3 59 2.9 WNW | 294 5.1 WNW | 294 74.8 56.3
5/19/22 - 1830 64.6 51.8 63 4.1 W | 272 6.8 W | 259 74.8 56.3
5/19/22 - 1820 65.1 51.8 62 6.1 WSW | 252 9.0 W | 271 74.8 56.3
5/19/22 - 1810 66.3 51.5 59 8.0 WSW | 258 10.7 WSW | 257 74.8 56.3
5/19/22 - 1800 67.3 51.6 57 8.4 W | 260 11.5 WSW | 256 74.8 56.3
5/19/22 - 1750 67.5 51.9 57 8.6 W | 261 12.9 W | 264 74.8 56.3
5/19/22 - 1740 67.8 51.9 57 8.5 W | 272 11.9 W | 268 74.8 56.3
5/19/22 - 1730 68.0 52.0 56 7.8 W | 267 11.5 W | 273 74.8 56.3
5/19/22 - 1720 68.7 52.1 56 7.8 W | 264 11.4 W | 269 74.8 56.3
5/19/22 - 1710 69.5 51.7 53 8.4 W | 262 13.1 WSW | 255 74.8 56.3
5/19/22 - 1700 70.2 51.3 51 9.0 W | 263 14.8 WNW | 289 74.8 56.3
5/19/22 - 1650 70.6 50.3 49 10.3 W | 276 15.0 W | 275 74.8 56.3
5/19/22 - 1640 70.5 49.9 48 11.5 W | 276 15.6 W | 279 74.8 56.3
5/19/22 - 1630 71.0 50.1 48 11.3 W | 279 16.1 W | 278 74.8 56.3
5/19/22 - 1620 70.8 50.3 48 11.6 W | 274 16.8 W | 279 74.8 56.3
5/19/22 - 1610 71.0 50.6 48 13.2 W | 274 18.1 W | 259 74.8 56.3
5/19/22 - 1600 71.8 51.6 49 13.7 W | 272 18.8 W | 267 74.8 56.3
5/19/22 - 1550 72.6 52.0 48 12.5 W | 279 16.8 WNW | 282 74.8 56.3
5/19/22 - 1540 73.0 51.5 47 11.3 W | 276 16.3 W | 262 74.8 56.3
5/19/22 - 1530 72.8 51.4 47 12.8 W | 274 18.7 W | 279 74.8 56.3
5/19/22 - 1520 73.2 50.8 45 13.4 W | 276 18.0 W | 260 74.8 56.3
5/19/22 - 1510 73.4 50.6 45 12.2 W | 275 18.2 W | 268 74.8 56.3
5/19/22 - 1500 73.7 50.8 45 11.0 W | 266 19.4 WSW | 254 74.8 56.3
5/19/22 - 1450 73.9 50.7 44 9.8 W | 272 16.5 WNW | 282 74.8 56.3
5/19/22 - 1440 73.6 51.1 45 11.3 WSW | 258 16.8 WSW | 254 74.8 56.3
5/19/22 - 1430 73.8 50.6 44 10.0 WSW | 250 16.8 W | 260 74.4 56.3
5/19/22 - 1420 73.4 50.4 44 9.0 WSW | 252 14.1 W | 260 74.4 56.3
5/19/22 - 1410 73.1 50.2 44 8.6 WSW | 258 13.1 WSW | 252 73.9 56.3
5/19/22 - 1400 72.6 50.0 45 9.6 W | 262 15.5 W | 271 73.8 56.3
5/19/22 - 1350 72.6 50.1 45 10.0 W | 266 16.7 WSW | 258 73.1 56.3
5/19/22 - 1340 72.0 50.1 46 8.0 WSW | 258 14.8 W | 262 72.5 56.3
5/19/22 - 1330 71.2 50.3 48 7.3 WSW | 255 13.6 WSW | 251 72.2 56.3
5/19/22 - 1320 70.7 50.4 48 8.0 W | 263 13.2 WSW | 247 72.2 56.3
5/19/22 - 1310 71.1 50.3 48 7.8 WSW | 255 13.4 W | 260 72.2 56.3
5/19/22 - 1300 70.8 50.0 48 10.2 W | 262 14.9 W | 261 72.2 56.3
5/19/22 - 1250 69.7 49.7 49 10.1 W | 268 15.0 WSW | 258 72.2 56.3
5/19/22 - 1240 69.7 50.2 50 10.2 W | 274 15.6 W | 279 72.2 56.3
5/19/22 - 1230 69.4 50.6 51 11.4 W | 274 17.0 W | 269 72.2 56.3
5/19/22 - 1220 69.6 51.5 53 11.1 W | 267 15.6 W | 273 72.2 56.3
5/19/22 - 1210 70.0 51.5 52 10.8 W | 265 16.2 W | 259 72.2 56.3
5/19/22 - 1200 69.7 51.2 52 9.6 W | 273 14.2 W | 260 72.2 56.3
5/19/22 - 1150 70.8 50.9 49 9.1 W | 263 13.3 W | 262 72.2 56.3
5/19/22 - 1140 70.9 50.7 49 8.2 W | 274 12.8 W | 264 72.2 56.3
5/19/22 - 1130 70.8 50.0 48 7.3 W | 259 11.3 WSW | 256 72.2 56.3
5/19/22 - 1120 71.3 48.9 45 7.7 W | 265 10.7 W | 260 72.2 56.3
5/19/22 - 1110 71.1 47.7 43 5.3 W | 261 9.7 W | 270 72.2 56.3
5/19/22 - 1100 71.6 44.2 37 5.8 W | 260 9.4 W | 264 72.2 56.3
5/19/22 - 1050 71.3 44.0 37 5.1 WSW | 246 8.5 SW | 234 72.2 56.3
5/19/22 - 1040 71.0 43.3 37 6.4 W | 262 9.7 W | 260 72.2 56.3
5/19/22 - 1030 71.4 43.2 36 5.5 W | 263 8.5 WSW | 258 72.2 56.3
5/19/22 - 1020 71.5 44.6 38 5.0 WSW | 256 7.3 WSW | 258 72.2 56.3
5/19/22 - 1010 70.9 45.7 40 4.8 WSW | 241 8.3 WSW | 248 72.0 56.3
5/19/22 - 1000 70.3 46.3 42 4.4 WSW | 240 7.7 WSW | 252 72.0 56.3
5/19/22 - 0950 70.0 47.0 44 5.5 WSW | 246 8.3 WSW | 250 72.0 56.3
5/19/22 - 0940 69.8 46.8 44 5.2 WSW | 240 7.7 WSW | 250 72.0 56.3
5/19/22 - 0930 69.8 45.8 42 5.4 WSW | 237 7.7 SW | 226 72.0 56.3
5/19/22 - 0920 69.7 43.0 38 5.3 WSW | 245 8.2 W | 264 72.0 56.3
5/19/22 - 0910 69.9 43.3 38 4.5 WSW | 253 6.9 WSW | 251 72.0 56.3
5/19/22 - 0900 69.2 44.2 40 3.0 SW | 232 5.6 WSW | 247 72.0 56.3
5/19/22 - 0850 68.1 44.2 42 2.1 SW | 223 4.3 WSW | 242 72.0 56.3
5/19/22 - 0840 68.0 45.1 44 3.6 WSW | 251 5.8 SW | 226 72.0 56.3
5/19/22 - 0830 68.1 42.4 39 3.4 SW | 236 4.8 WSW | 245 72.0 56.3
5/19/22 - 0820 69.9 40.1 34 4.3 SW | 229 6.5 SSW | 204 72.0 56.3
5/19/22 - 0810 68.6 41.7 38 3.0 SSW | 210 4.6 SW | 228 72.0 56.3
5/19/22 - 0800 71.3 39.8 32 3.1 W | 278 4.7 SW | 227 72.0 56.3
5/19/22 - 0750 70.9 39.1 31 2.2 NNE | 16 4.7 N | 5 72.0 56.3
Max 73.9 52.1 100 13.7 - 19.4 - 74.8 56.3
Avg 60.1 49.2 73 5.5 - 8.7 - - -
Min 47.7 39.1 31 1.1 - 2.3 - 50.2 47.5